createdAt,value
2018-05-21T00:00:50.659Z,16.70
2018-05-21T00:03:18.281Z,16.70
2018-05-21T00:05:45.888Z,16.70
2018-05-21T00:08:13.484Z,16.70
2018-05-21T00:10:41.139Z,16.70
2018-05-21T00:13:08.764Z,16.70
2018-05-21T00:15:36.385Z,16.60
2018-05-21T00:18:03.974Z,16.60
2018-05-21T00:20:31.597Z,16.50
2018-05-21T00:22:59.331Z,16.50
2018-05-21T00:25:26.941Z,16.50
2018-05-21T00:27:54.695Z,16.40
2018-05-21T00:30:22.848Z,16.40
2018-05-21T00:32:51.219Z,16.40
2018-05-21T00:35:18.837Z,16.40
2018-05-21T00:37:46.396Z,16.40
2018-05-21T00:40:14.026Z,16.30
2018-05-21T00:42:41.611Z,16.30
2018-05-21T00:45:09.996Z,16.30
2018-05-21T00:47:37.598Z,16.20
2018-05-21T00:50:05.182Z,16.20
2018-05-21T00:52:32.824Z,16.20
2018-05-21T00:55:12.293Z,16.10
2018-05-21T00:57:39.870Z,16.10
2018-05-21T01:00:07.488Z,16.00
2018-05-21T01:02:35.087Z,16.00
2018-05-21T01:05:02.703Z,15.90
2018-05-21T01:07:31.110Z,15.80
2018-05-21T01:09:58.703Z,15.80
2018-05-21T01:12:26.282Z,15.80
2018-05-21T01:14:53.972Z,15.80
2018-05-21T01:17:21.614Z,15.80
2018-05-21T01:19:49.328Z,15.70
2018-05-21T01:22:16.908Z,15.70
2018-05-21T01:24:44.531Z,15.70
2018-05-21T01:27:12.132Z,15.70
2018-05-21T01:29:39.728Z,15.70
2018-05-21T01:32:07.303Z,15.70
2018-05-21T01:34:34.912Z,15.60
2018-05-21T01:37:02.514Z,15.60
2018-05-21T01:39:30.118Z,15.60
2018-05-21T01:41:57.736Z,15.60
2018-05-21T01:44:25.342Z,15.50
2018-05-21T01:46:53.079Z,15.50
2018-05-21T01:49:20.650Z,15.50
2018-05-21T01:51:48.321Z,15.40
2018-05-21T01:54:15.923Z,15.40
2018-05-21T01:56:44.266Z,15.40
2018-05-21T01:59:11.814Z,15.40
2018-05-21T02:01:39.429Z,15.40
2018-05-21T02:04:07.013Z,15.40
2018-05-21T02:06:35.396Z,15.30
2018-05-21T02:09:03.823Z,15.30
2018-05-21T02:11:31.461Z,15.30
2018-05-21T02:13:59.807Z,15.20
2018-05-21T02:16:27.415Z,15.20
2018-05-21T02:18:55.051Z,15.20
2018-05-21T02:21:23.428Z,15.10
2018-05-21T02:23:51.779Z,15.10
2018-05-21T02:26:19.379Z,15.10
2018-05-21T02:28:47.768Z,15.10
2018-05-21T02:31:16.107Z,15.10
2018-05-21T02:33:43.666Z,15.10
2018-05-21T02:36:11.260Z,15.10
2018-05-21T02:38:38.847Z,15.00
2018-05-21T02:41:07.209Z,15.00
2018-05-21T02:43:34.821Z,14.90
2018-05-21T02:46:02.403Z,14.90
2018-05-21T02:48:30.019Z,14.90
2018-05-21T02:50:59.524Z,14.90
2018-05-21T02:53:27.932Z,14.80
2018-05-21T02:55:55.524Z,14.80
2018-05-21T02:58:23.099Z,14.80
2018-05-21T03:00:50.674Z,14.80
2018-05-21T03:03:18.394Z,14.80
2018-05-21T03:05:46.003Z,14.80
2018-05-21T03:08:14.374Z,14.80
2018-05-21T03:10:42.286Z,14.80
2018-05-21T03:13:10.654Z,14.70
2018-05-21T03:15:39.163Z,14.70
2018-05-21T03:18:06.736Z,14.70
2018-05-21T03:20:34.304Z,14.70
2018-05-21T03:23:02.679Z,14.70
2018-05-21T03:25:32.262Z,14.60
2018-05-21T03:27:59.897Z,14.60
2018-05-21T03:30:27.513Z,14.60
2018-05-21T03:32:55.093Z,14.60
2018-05-21T03:35:23.489Z,14.60
2018-05-21T03:37:51.091Z,14.60
2018-05-21T03:40:18.704Z,14.60
2018-05-21T03:42:47.068Z,14.50
2018-05-21T03:45:14.688Z,14.60
2018-05-21T03:47:42.306Z,14.50
2018-05-21T03:50:09.904Z,14.50
2018-05-21T03:52:37.505Z,14.50
2018-05-21T03:55:05.136Z,14.50
2018-05-21T03:57:32.712Z,14.50
2018-05-21T04:00:13.878Z,14.50
2018-05-21T04:02:53.268Z,14.50
2018-05-21T04:05:20.882Z,14.50
2018-05-21T04:07:48.470Z,14.50
2018-05-21T04:10:16.081Z,14.50
2018-05-21T04:12:44.426Z,14.50
2018-05-21T04:15:12.009Z,14.50
2018-05-21T04:17:40.600Z,14.50
2018-05-21T04:20:08.276Z,14.60
2018-05-21T04:22:35.918Z,14.60
2018-05-21T04:25:03.522Z,14.60
2018-05-21T04:27:31.926Z,14.60
2018-05-21T04:29:59.537Z,14.60
2018-05-21T04:32:27.135Z,14.60
2018-05-21T04:34:54.726Z,14.60
2018-05-21T04:37:22.302Z,14.60
2018-05-21T04:39:49.958Z,14.60
2018-05-21T04:42:17.579Z,14.60
2018-05-21T04:44:45.204Z,14.60
2018-05-21T04:47:12.789Z,14.70
2018-05-21T04:49:40.409Z,14.70
2018-05-21T04:52:07.988Z,14.80
2018-05-21T04:54:35.571Z,14.70
2018-05-21T04:57:03.195Z,14.80
2018-05-21T04:59:31.598Z,14.90
2018-05-21T05:01:59.183Z,14.90
2018-05-21T05:04:26.820Z,15.00
2018-05-21T05:06:54.443Z,15.10
2018-05-21T05:09:22.019Z,15.10
2018-05-21T05:11:49.582Z,15.20
2018-05-21T05:14:17.673Z,15.30
2018-05-21T05:16:45.357Z,15.40
2018-05-21T05:19:12.948Z,15.40
2018-05-21T05:21:41.307Z,15.50
2018-05-21T05:24:08.947Z,15.60
2018-05-21T05:26:37.358Z,15.80
2018-05-21T05:29:04.943Z,15.70
2018-05-21T05:31:32.588Z,15.80
2018-05-21T05:34:00.234Z,15.90
2018-05-21T05:36:28.622Z,16.00
2018-05-21T05:38:56.996Z,16.00
2018-05-21T05:41:25.359Z,16.10
2018-05-21T05:43:52.978Z,16.10
2018-05-21T05:46:20.595Z,16.20
2018-05-21T05:48:48.183Z,16.20
2018-05-21T05:51:15.779Z,16.30
2018-05-21T05:53:43.369Z,16.30
2018-05-21T05:56:10.978Z,16.30
2018-05-21T05:58:39.326Z,16.50
2018-05-21T06:01:06.966Z,16.50
2018-05-21T06:03:34.653Z,16.50
2018-05-21T06:06:02.211Z,16.50
2018-05-21T06:08:29.775Z,16.50
2018-05-21T06:10:57.409Z,16.40
2018-05-21T06:13:24.989Z,16.30
2018-05-21T06:15:52.631Z,16.20
2018-05-21T06:18:20.363Z,16.10
2018-05-21T06:20:48.014Z,16.00
2018-05-21T06:23:15.605Z,16.00
2018-05-21T06:25:43.957Z,16.20
2018-05-21T06:28:11.585Z,16.20
2018-05-21T06:30:39.279Z,16.20
2018-05-21T06:33:06.870Z,16.50
2018-05-21T06:35:34.467Z,16.60
2018-05-21T06:38:03.308Z,17.00
2018-05-21T06:40:30.912Z,17.00
2018-05-21T06:42:59.272Z,17.10
2018-05-21T06:45:26.916Z,17.10
2018-05-21T06:47:54.495Z,17.10
2018-05-21T06:50:22.574Z,17.20
2018-05-21T06:52:50.231Z,17.40
2018-05-21T06:55:17.853Z,17.50
2018-05-21T06:57:47.292Z,17.80
2018-05-21T07:00:14.986Z,17.80
2018-05-21T07:02:43.781Z,18.00
2018-05-21T07:05:11.380Z,18.10
2018-05-21T07:07:38.979Z,18.30
2018-05-21T07:10:06.597Z,18.50
2018-05-21T07:12:34.295Z,18.70
2018-05-21T07:15:01.881Z,18.90
2018-05-21T07:17:29.473Z,19.10
2018-05-21T07:19:57.095Z,19.10
2018-05-21T07:22:25.307Z,19.20
2018-05-21T07:24:52.931Z,19.30
2018-05-21T07:27:20.547Z,19.40
2018-05-21T07:29:48.211Z,19.50
2018-05-21T07:32:15.798Z,19.60
2018-05-21T07:34:43.408Z,19.60
2018-05-21T07:37:12.172Z,19.90
2018-05-21T07:39:40.525Z,20.20
2018-05-21T07:42:08.154Z,20.10
2018-05-21T07:44:35.786Z,20.40
2018-05-21T07:47:04.228Z,20.60
2018-05-21T07:49:31.827Z,20.60
2018-05-21T07:52:00.178Z,20.70
2018-05-21T07:54:27.793Z,20.70
2018-05-21T07:56:55.403Z,20.80
2018-05-21T07:59:23.002Z,20.90
2018-05-21T08:01:50.591Z,21.10
2018-05-21T08:04:18.945Z,21.20
2018-05-21T08:06:46.606Z,21.20
2018-05-21T08:09:14.191Z,21.30
2018-05-21T08:11:41.796Z,21.50
2018-05-21T08:14:09.393Z,21.50
2018-05-21T08:16:38.135Z,21.50
2018-05-21T08:19:05.745Z,21.60
2018-05-21T08:21:33.473Z,21.70
2018-05-21T08:24:01.903Z,21.80
2018-05-21T08:26:30.905Z,21.80
2018-05-21T08:28:59.895Z,21.90
2018-05-21T08:31:27.683Z,22.10
2018-05-21T08:33:56.301Z,22.30
2018-05-21T08:36:24.685Z,22.30
2018-05-21T08:38:52.402Z,22.30
2018-05-21T08:41:20.091Z,22.20
2018-05-21T08:43:47.727Z,22.40
2018-05-21T08:46:15.389Z,22.50
2018-05-21T08:48:43.083Z,22.60
2018-05-21T08:51:11.626Z,22.70
2018-05-21T08:53:39.278Z,22.90
2018-05-21T08:56:06.872Z,23.10
2018-05-21T08:58:34.582Z,23.20
2018-05-21T09:01:02.991Z,23.10
2018-05-21T09:03:30.683Z,23.10
2018-05-21T09:05:58.264Z,22.80
2018-05-21T09:08:25.943Z,22.60
2018-05-21T09:10:53.524Z,22.40
2018-05-21T09:13:21.143Z,22.50
2018-05-21T09:15:49.519Z,23.10
2018-05-21T09:18:17.389Z,23.00
2018-05-21T09:20:44.967Z,23.10
2018-05-21T09:23:12.569Z,23.20
2018-05-21T09:25:41.815Z,23.00
2018-05-21T09:28:09.405Z,23.00
2018-05-21T09:30:36.985Z,22.70
2018-05-21T09:33:04.619Z,22.70
2018-05-21T09:35:33.277Z,22.80
2018-05-21T09:38:00.907Z,23.10
2018-05-21T09:40:28.528Z,23.50
2018-05-21T09:42:56.168Z,23.90
2018-05-21T09:45:24.591Z,24.50
2018-05-21T09:47:52.209Z,24.50
2018-05-21T09:50:20.569Z,24.70
2018-05-21T09:52:48.255Z,24.70
2018-05-21T09:55:16.607Z,24.80
2018-05-21T09:57:44.231Z,25.00
2018-05-21T10:00:11.871Z,25.00
2018-05-21T10:02:40.241Z,25.10
2018-05-21T10:05:07.851Z,25.10
2018-05-21T10:07:35.471Z,25.30
2018-05-21T10:10:03.125Z,25.40
2018-05-21T10:12:31.593Z,25.70
2018-05-21T10:14:59.318Z,25.70
2018-05-21T10:17:26.996Z,25.90
2018-05-21T10:19:54.714Z,25.90
2018-05-21T10:22:22.384Z,26.10
2018-05-21T10:24:49.991Z,26.00
2018-05-21T10:27:17.632Z,26.00
2018-05-21T10:29:45.290Z,26.30
2018-05-21T10:32:12.949Z,26.60
2018-05-21T10:34:41.153Z,26.20
2018-05-21T10:37:08.877Z,26.20
2018-05-21T10:39:37.163Z,26.60
2018-05-21T10:42:04.981Z,26.50
2018-05-21T10:44:33.427Z,26.60
2018-05-21T10:47:01.114Z,26.80
2018-05-21T10:49:28.733Z,26.80
2018-05-21T10:51:57.847Z,26.60
2018-05-21T10:54:25.528Z,26.70
2018-05-21T10:56:53.650Z,26.90
2018-05-21T10:59:21.300Z,26.90
2018-05-21T11:01:48.917Z,26.80
2018-05-21T11:04:16.562Z,27.00
2018-05-21T11:06:44.798Z,26.80
2018-05-21T11:09:13.037Z,26.70
2018-05-21T11:11:40.777Z,27.00
2018-05-21T11:14:08.447Z,27.40
2018-05-21T11:16:36.141Z,27.60
2018-05-21T11:19:03.797Z,27.70
2018-05-21T11:21:33.195Z,27.70
2018-05-21T11:24:00.761Z,27.70
2018-05-21T11:26:28.450Z,27.70
2018-05-21T11:28:56.040Z,27.40
2018-05-21T11:31:23.670Z,27.40
2018-05-21T11:33:51.303Z,27.50
2018-05-21T11:36:19.663Z,27.80
2018-05-21T11:38:47.624Z,27.80
2018-05-21T11:41:16.026Z,27.80
2018-05-21T11:43:44.424Z,28.00
2018-05-21T11:46:12.885Z,28.00
2018-05-21T11:48:40.524Z,27.90
2018-05-21T11:51:08.185Z,28.10
2018-05-21T11:53:35.830Z,28.20
2018-05-21T11:56:03.469Z,28.40
2018-05-21T11:58:31.865Z,28.30
2018-05-21T12:00:59.523Z,28.30
2018-05-21T12:03:27.201Z,28.50
2018-05-21T12:05:54.865Z,28.60
2018-05-21T12:08:23.816Z,28.80
2018-05-21T12:10:51.497Z,28.90
2018-05-21T12:13:19.093Z,28.80
2018-05-21T12:15:46.697Z,28.70
2018-05-21T12:18:14.373Z,28.60
2018-05-21T12:20:41.999Z,28.70
2018-05-21T18:42:59.377Z,24.70
2018-05-21T18:45:26.980Z,24.50
2018-05-21T18:47:55.407Z,24.40
2018-05-21T18:50:23.948Z,24.30
2018-05-21T18:52:52.377Z,24.30
2018-05-21T18:55:19.963Z,24.20
2018-05-21T18:57:47.552Z,24.20
2018-05-21T19:00:15.223Z,24.10
2018-05-21T19:02:43.371Z,24.10
2018-05-21T19:05:10.973Z,24.00
2018-05-21T19:07:38.659Z,23.90
2018-05-21T19:10:06.301Z,23.80
2018-05-21T19:12:35.609Z,23.60
2018-05-21T19:15:03.353Z,23.60
2018-05-21T19:17:30.910Z,23.60
2018-05-21T19:19:58.565Z,23.50
2018-05-21T19:22:26.269Z,23.50
2018-05-21T19:24:53.870Z,23.50
2018-05-21T19:27:21.439Z,23.40
2018-05-21T19:29:49.003Z,23.40
2018-05-21T19:32:17.633Z,23.30
2018-05-21T19:34:45.220Z,23.20
2018-05-21T19:37:13.648Z,23.10
2018-05-21T19:39:42.155Z,23.10
2018-05-21T19:42:09.866Z,23.00
2018-05-21T19:44:37.528Z,23.00
2018-05-21T19:47:05.188Z,23.00
2018-05-21T19:49:33.502Z,22.90
2018-05-21T19:52:01.158Z,22.90
2018-05-21T19:54:30.007Z,22.80
2018-05-21T19:56:57.639Z,22.80
2018-05-21T19:59:26.080Z,22.80
2018-05-21T20:01:54.562Z,22.70
2018-05-21T20:04:22.146Z,22.60
2018-05-21T20:06:50.526Z,22.50
2018-05-21T20:09:18.873Z,22.50
2018-05-21T20:11:46.467Z,22.50
2018-05-21T20:14:14.834Z,22.40
2018-05-21T20:16:42.449Z,22.40
2018-05-21T20:19:10.685Z,22.40
2018-05-21T20:21:38.341Z,22.30
2018-05-21T20:24:06.000Z,22.30
2018-05-21T20:26:33.717Z,22.30
2018-05-21T20:29:02.770Z,22.30
2018-05-21T20:31:30.443Z,22.20
2018-05-21T20:34:10.354Z,22.20
2018-05-21T20:36:37.980Z,22.10
2018-05-21T20:39:06.528Z,22.10
2018-05-21T20:41:34.522Z,22.10
2018-05-21T20:44:02.236Z,22.10
2018-05-21T20:46:36.210Z,22.00
2018-05-21T20:49:04.643Z,22.00
2018-05-21T20:51:33.023Z,21.90
2018-05-21T20:54:00.646Z,21.90
2018-05-21T20:56:28.995Z,21.90
2018-05-21T20:58:56.655Z,21.90
2018-05-21T21:01:24.328Z,21.90
2018-05-21T21:03:52.041Z,22.00
2018-05-21T21:06:19.659Z,21.90
2018-05-21T21:08:47.239Z,21.90
2018-05-21T21:11:14.843Z,21.90
2018-05-21T21:13:42.434Z,21.90
2018-05-21T21:16:10.018Z,22.00
2018-05-21T21:18:37.595Z,22.00
2018-05-21T21:21:05.204Z,21.90
2018-05-21T21:23:32.852Z,21.90
2018-05-21T21:26:00.553Z,21.80
2018-05-21T21:28:28.306Z,21.60
2018-05-21T21:30:55.942Z,21.60
2018-05-21T21:33:23.569Z,21.50
2018-05-21T21:35:51.182Z,21.30
2018-05-21T21:38:18.783Z,21.30
2018-05-21T21:40:46.377Z,21.20
2018-05-21T21:43:13.973Z,21.10
2018-05-21T21:45:42.357Z,20.90
2018-05-21T21:48:10.707Z,20.80
2018-05-21T21:50:38.925Z,20.80
2018-05-21T21:53:07.398Z,20.70
2018-05-21T21:55:35.764Z,20.60
2018-05-21T21:58:03.382Z,20.60
2018-05-21T22:00:31.058Z,20.60
2018-05-21T22:02:58.648Z,20.50
2018-05-21T22:05:26.268Z,20.50
2018-05-21T22:07:53.869Z,20.30
2018-05-21T22:10:21.479Z,20.30
2018-05-21T22:12:49.069Z,20.30
2018-05-21T22:15:16.690Z,20.30
2018-05-21T22:17:44.342Z,20.30
2018-05-21T22:20:11.983Z,20.30
2018-05-21T22:22:39.639Z,20.20
2018-05-21T22:25:07.255Z,20.20
2018-05-21T22:27:34.883Z,20.10
2018-05-21T22:30:02.469Z,20.20
2018-05-21T22:32:30.167Z,20.10
2018-05-21T22:34:58.542Z,20.10
2018-05-21T22:37:26.129Z,20.10
2018-05-21T22:39:54.492Z,19.90
2018-05-21T22:42:22.176Z,19.90
2018-05-21T22:44:49.803Z,19.80
2018-05-21T22:47:17.423Z,19.70
2018-05-21T22:49:44.990Z,19.60
2018-05-21T22:52:12.568Z,19.40
2018-05-21T22:54:40.168Z,19.30
2018-05-21T22:57:07.743Z,19.20
2018-05-21T22:59:35.347Z,19.10
2018-05-21T23:02:02.940Z,19.00
2018-05-21T23:04:31.327Z,18.80
2018-05-21T23:06:58.964Z,18.80
2018-05-21T23:09:26.562Z,18.70
2018-05-21T23:11:54.197Z,18.50
2018-05-21T23:14:21.877Z,18.30
2018-05-21T23:16:49.448Z,18.10
2018-05-21T23:19:17.071Z,18.00
2018-05-21T23:21:45.327Z,17.90
2018-05-21T23:24:13.033Z,17.80
2018-05-21T23:26:41.413Z,17.60
2018-05-21T23:29:09.924Z,17.60
2018-05-21T23:31:37.552Z,17.60
2018-05-21T23:34:05.158Z,17.60
2018-05-21T23:36:32.786Z,17.50
2018-05-21T23:39:00.407Z,17.50
2018-05-21T23:41:28.026Z,17.40
2018-05-21T23:43:56.402Z,17.30
2018-05-21T23:46:24.829Z,17.20
2018-05-21T23:48:52.458Z,17.30
2018-05-21T23:51:20.832Z,17.20
2018-05-21T23:53:49.320Z,17.20
2018-05-21T23:56:16.943Z,17.20
2018-05-21T23:58:44.590Z,17.20
